createdAt,value
2023-02-16T00:02:30.310Z,50.50
2023-02-16T00:05:39.749Z,49.31
2023-02-16T00:08:47.755Z,49.47
2023-02-16T00:12:09.940Z,48.07
2023-02-16T00:15:22.543Z,46.68
2023-02-16T00:18:29.391Z,46.88
2023-02-16T00:21:37.869Z,46.66
2023-02-16T00:24:44.625Z,46.27
2023-02-16T00:27:50.763Z,46.01
2023-02-16T00:30:58.418Z,45.27
2023-02-16T00:34:29.903Z,44.51
2023-02-16T00:37:39.190Z,45.44
2023-02-16T00:40:46.116Z,44.76
2023-02-16T00:43:55.085Z,44.56
2023-02-16T00:47:07.852Z,45.03
2023-02-16T00:50:23.675Z,45.68
2023-02-16T00:53:32.108Z,45.88
2023-02-16T00:56:46.374Z,44.73
2023-02-16T01:00:06.528Z,44.53
2023-02-16T01:03:22.689Z,43.87
2023-02-16T01:06:40.901Z,43.12
2023-02-16T01:10:08.868Z,44.70
2023-02-16T01:13:18.702Z,44.03
2023-02-16T01:16:40.938Z,44.49
2023-02-16T01:19:46.820Z,44.21
2023-02-16T01:22:55.854Z,43.62
2023-02-16T01:26:04.628Z,43.48
2023-02-16T01:29:19.462Z,43.62
2023-02-16T01:32:27.729Z,44.57
2023-02-16T01:35:37.695Z,43.99
2023-02-16T01:38:47.281Z,44.00
2023-02-16T01:42:30.998Z,45.08
2023-02-16T01:45:55.169Z,47.06
2023-02-16T01:49:04.921Z,47.83
2023-02-16T01:52:27.549Z,47.22
2023-02-16T01:55:40.921Z,48.07
2023-02-16T01:58:59.305Z,47.73
2023-02-16T02:02:24.009Z,45.74
2023-02-16T02:05:38.207Z,44.80
2023-02-16T02:08:59.901Z,46.03
2023-02-16T02:12:23.131Z,45.01
2023-02-16T02:15:37.124Z,44.00
2023-02-16T02:18:43.551Z,44.56
2023-02-16T02:23:07.430Z,43.94
2023-02-16T02:27:10.195Z,43.10
2023-02-16T02:30:44.880Z,44.24
2023-02-16T02:34:11.799Z,45.90
2023-02-16T02:37:38.066Z,46.47
2023-02-16T02:41:03.942Z,47.15
2023-02-16T02:44:23.787Z,45.56
2023-02-16T02:47:42.775Z,45.83
2023-02-16T02:51:10.881Z,43.72
2023-02-16T02:54:38.296Z,43.45
2023-02-16T02:58:06.118Z,44.47
2023-02-16T03:01:22.811Z,44.80
2023-02-16T03:04:35.464Z,44.92
2023-02-16T03:07:52.207Z,43.97
2023-02-16T03:11:24.783Z,43.98
2023-02-16T03:14:38.178Z,44.12
2023-02-16T03:18:01.861Z,44.87
2023-02-16T03:21:21.776Z,43.75
2023-02-16T03:24:46.247Z,43.45
2023-02-16T03:28:05.618Z,44.44
2023-02-16T03:31:19.874Z,46.24
2023-02-16T03:34:29.629Z,46.98
2023-02-16T03:37:38.234Z,46.16
2023-02-16T03:40:50.153Z,46.39
2023-02-16T03:43:56.829Z,48.27
2023-02-16T03:47:02.704Z,49.44
2023-02-16T03:50:13.117Z,47.94
2023-02-16T03:53:19.394Z,44.18
2023-02-16T03:56:26.435Z,44.55
2023-02-16T03:59:32.377Z,45.61
2023-02-16T04:02:39.176Z,48.71
2023-02-16T04:05:47.850Z,50.16
2023-02-16T04:08:54.835Z,50.79
2023-02-16T04:12:13.010Z,49.53
2023-02-16T04:15:23.287Z,49.83
2023-02-16T04:18:29.132Z,46.91
2023-02-16T04:21:38.545Z,46.20
2023-02-16T04:24:44.617Z,46.52
2023-02-16T04:27:54.307Z,47.66
2023-02-16T04:31:00.394Z,46.77
2023-02-16T04:34:07.133Z,46.79
2023-02-16T04:37:15.823Z,47.93
2023-02-16T04:40:23.481Z,47.31
2023-02-16T04:43:29.544Z,47.48
2023-02-16T04:46:36.268Z,47.48
2023-02-16T04:49:42.145Z,48.62
2023-02-16T04:52:51.434Z,51.48
2023-02-16T04:55:57.277Z,52.90
2023-02-16T04:59:04.005Z,54.50
2023-02-16T05:02:10.069Z,54.64
2023-02-16T05:05:17.777Z,56.21
2023-02-16T05:08:26.360Z,54.52
2023-02-16T05:11:45.724Z,58.58
2023-02-16T05:14:51.560Z,52.00
2023-02-16T05:17:58.251Z,52.44
2023-02-16T05:21:16.405Z,59.49
2023-02-16T05:24:28.191Z,58.11
2023-02-16T05:27:34.827Z,57.94
2023-02-16T05:30:41.560Z,51.55
2023-02-16T05:33:47.441Z,50.83
2023-02-16T05:36:55.349Z,50.54
2023-02-16T05:40:03.809Z,51.66
2023-02-16T05:43:10.507Z,51.78
2023-02-16T05:46:18.487Z,50.00
2023-02-16T05:49:25.921Z,50.18
2023-02-16T05:52:31.985Z,49.82
2023-02-16T05:55:41.192Z,49.45
2023-02-16T05:58:47.040Z,48.28
2023-02-16T06:01:54.267Z,49.77
2023-02-16T06:05:00.139Z,47.19
2023-02-16T06:08:08.377Z,47.77
2023-02-16T06:11:29.086Z,46.43
2023-02-16T06:14:35.798Z,45.43
2023-02-16T06:17:44.803Z,44.22
2023-02-16T06:20:52.209Z,43.59
2023-02-16T06:23:58.334Z,45.14
2023-02-16T06:27:07.883Z,44.55
2023-02-16T06:30:15.328Z,46.36
2023-02-16T06:33:22.107Z,45.70
2023-02-16T06:36:30.305Z,46.13
2023-02-16T06:39:36.965Z,44.93
2023-02-16T06:42:46.358Z,47.60
2023-02-16T06:45:53.086Z,46.26
2023-02-16T06:49:00.852Z,47.23
2023-02-16T06:52:10.279Z,45.59
2023-02-16T06:55:16.136Z,46.35
2023-02-16T06:58:25.679Z,46.05
2023-02-16T07:01:34.230Z,46.00
2023-02-16T07:04:40.936Z,47.50
2023-02-16T07:07:47.030Z,49.13
2023-02-16T07:10:55.982Z,47.05
2023-02-16T07:14:04.957Z,46.53
2023-02-16T07:17:11.737Z,46.39
2023-02-16T07:20:24.314Z,47.62
2023-02-16T07:23:31.393Z,46.23
2023-02-16T07:26:39.762Z,46.81
2023-02-16T07:29:49.070Z,44.77
2023-02-16T07:32:54.881Z,45.85
2023-02-16T07:36:03.715Z,43.83
2023-02-16T07:39:09.558Z,42.90
2023-02-16T07:42:16.225Z,45.52
2023-02-16T07:45:44.069Z,44.01
2023-02-16T07:48:52.475Z,44.35
2023-02-16T07:51:58.324Z,42.46
2023-02-16T07:55:05.537Z,43.94
2023-02-16T07:58:11.606Z,42.49
2023-02-16T08:01:20.894Z,42.18
2023-02-16T08:04:26.915Z,40.29
2023-02-16T08:07:33.640Z,39.63
2023-02-16T08:10:39.533Z,40.94
2023-02-16T08:13:46.692Z,40.68
2023-02-16T08:16:56.713Z,41.67
2023-02-16T08:20:03.789Z,43.66
2023-02-16T08:23:10.768Z,44.42
2023-02-16T08:26:21.178Z,43.91
2023-02-16T08:29:27.634Z,43.85
2023-02-16T08:32:36.934Z,42.89
2023-02-16T08:35:43.146Z,41.04
2023-02-16T08:38:51.041Z,39.41
2023-02-16T08:41:58.408Z,40.61
2023-02-16T08:45:05.090Z,39.75
2023-02-16T08:48:13.632Z,39.10
2023-02-16T08:51:23.693Z,40.89
2023-02-16T08:54:33.623Z,43.18
2023-02-16T08:57:40.295Z,42.30
2023-02-16T09:00:47.397Z,42.02
2023-02-16T09:03:57.361Z,39.62
2023-02-16T09:07:03.954Z,42.24
2023-02-16T09:10:12.145Z,43.73
2023-02-16T09:13:18.048Z,43.46
2023-02-16T09:16:28.255Z,39.15
2023-02-16T09:19:36.878Z,38.34
2023-02-16T09:22:47.379Z,38.20
2023-02-16T09:25:53.510Z,38.97
2023-02-16T09:29:00.309Z,37.99
2023-02-16T09:32:06.765Z,38.80
2023-02-16T09:35:16.144Z,38.07
2023-02-16T09:38:21.972Z,37.15
2023-02-16T09:41:53.470Z,37.25
2023-02-16T09:45:12.185Z,38.11
2023-02-16T09:48:42.824Z,38.52
2023-02-16T09:52:03.744Z,38.81
2023-02-16T09:55:16.485Z,40.20
2023-02-16T09:58:30.141Z,39.34
2023-02-16T10:01:54.537Z,38.98
2023-02-16T10:05:20.437Z,37.16
2023-02-16T10:08:40.438Z,37.22
2023-02-16T10:11:56.682Z,38.36
2023-02-16T10:15:16.586Z,41.85
2023-02-16T10:18:33.647Z,38.95
2023-02-16T10:21:42.802Z,36.47
2023-02-16T10:25:05.920Z,35.94
2023-02-16T10:28:23.111Z,35.53
2023-02-16T10:31:42.976Z,35.76
2023-02-16T10:34:57.987Z,36.39
2023-02-16T10:38:18.534Z,36.74
2023-02-16T10:41:40.028Z,37.84
2023-02-16T10:44:58.895Z,39.72
2023-02-16T10:48:05.937Z,40.72
2023-02-16T10:51:19.202Z,38.83
2023-02-16T10:54:33.171Z,38.13
2023-02-16T10:57:43.263Z,36.17
2023-02-16T11:01:01.528Z,36.82
2023-02-16T11:04:10.423Z,38.29
2023-02-16T11:07:20.407Z,36.29
2023-02-16T11:10:50.681Z,36.84
2023-02-16T11:14:09.538Z,36.47
2023-02-16T11:17:21.130Z,37.54
2023-02-16T11:20:32.433Z,36.51
2023-02-16T11:23:41.781Z,36.68
2023-02-16T11:27:05.649Z,37.40
2023-02-16T11:30:35.676Z,35.49
2023-02-16T11:33:44.994Z,38.84
2023-02-16T11:36:52.047Z,36.72
2023-02-16T11:40:04.122Z,35.40
2023-02-16T11:43:20.619Z,34.50
2023-02-16T11:46:30.931Z,35.88
2023-02-16T11:49:41.752Z,41.85
2023-02-16T11:52:50.067Z,50.84
2023-02-16T11:56:16.255Z,51.49
2023-02-16T11:59:25.733Z,42.50
2023-02-16T12:03:27.177Z,37.37
2023-02-16T12:07:03.978Z,36.47
2023-02-16T12:10:22.605Z,38.92
2023-02-16T12:13:44.344Z,36.88
2023-02-16T12:17:06.861Z,35.71
2023-02-16T12:20:41.517Z,37.26
2023-02-16T12:24:13.880Z,40.63
2023-02-16T12:27:36.644Z,34.68
2023-02-16T12:31:02.840Z,37.86
2023-02-16T12:34:30.169Z,40.84
2023-02-16T12:37:48.845Z,41.93
2023-02-16T12:41:20.944Z,43.35
2023-02-16T12:44:42.913Z,37.71
2023-02-16T12:48:00.604Z,37.90
2023-02-16T12:51:16.970Z,41.05
2023-02-16T12:54:36.010Z,42.06
2023-02-16T12:57:58.451Z,45.01
2023-02-16T13:01:14.792Z,42.89
2023-02-16T13:04:34.085Z,48.30
2023-02-16T13:07:47.219Z,40.50
2023-02-16T13:11:12.221Z,35.94
2023-02-16T13:14:26.449Z,35.29
2023-02-16T13:17:42.585Z,36.62
2023-02-16T13:20:59.547Z,40.13
2023-02-16T13:24:26.593Z,40.42
2023-02-16T13:27:58.307Z,36.93
2023-02-16T13:31:38.256Z,34.58
2023-02-16T13:35:33.297Z,38.76
2023-02-16T13:39:24.027Z,36.52
2023-02-16T13:43:11.802Z,37.68
2023-02-16T13:46:30.508Z,37.86
2023-02-16T13:49:43.263Z,37.48
2023-02-16T13:52:50.075Z,36.93
2023-02-16T13:56:38.145Z,39.22
2023-02-16T14:00:08.159Z,43.33
2023-02-16T14:03:42.223Z,47.97
2023-02-16T14:06:48.533Z,49.72
2023-02-16T14:09:55.298Z,51.87
2023-02-16T14:13:01.980Z,48.02
2023-02-16T14:16:27.177Z,45.25
2023-02-16T14:19:39.581Z,48.11
2023-02-16T14:22:57.557Z,53.54
2023-02-16T14:26:08.150Z,62.48
2023-02-16T14:29:24.009Z,47.98
2023-02-16T14:32:39.040Z,49.86
2023-02-16T14:35:50.908Z,45.64
2023-02-16T14:39:01.773Z,45.28
2023-02-16T14:42:19.134Z,45.28
2023-02-16T14:46:06.427Z,60.01
2023-02-16T14:50:12.148Z,58.48
2023-02-16T14:54:13.436Z,96.66
2023-02-16T14:57:34.340Z,48.44
2023-02-16T15:00:53.483Z,46.46
2023-02-16T15:04:00.990Z,44.39
2023-02-16T15:07:11.014Z,44.81
2023-02-16T15:10:26.939Z,43.69
2023-02-16T15:13:35.900Z,45.33
2023-02-16T15:16:50.661Z,48.71
2023-02-16T15:20:15.253Z,47.72
2023-02-16T15:23:27.310Z,52.44
2023-02-16T15:26:41.808Z,50.83
2023-02-16T15:30:10.035Z,51.28
2023-02-16T15:33:36.477Z,48.40
2023-02-16T15:36:47.945Z,48.66
2023-02-16T15:40:23.025Z,52.33
2023-02-16T15:43:35.962Z,60.68
2023-02-16T15:46:44.939Z,61.96
2023-02-16T15:49:52.345Z,58.59
2023-02-16T15:52:58.538Z,51.64
2023-02-16T15:56:28.323Z,62.69
2023-02-16T15:59:40.969Z,70.95
2023-02-16T16:02:52.548Z,64.55
2023-02-16T16:06:07.230Z,60.64
2023-02-16T16:09:26.987Z,71.61
2023-02-16T16:12:35.878Z,65.65
2023-02-16T16:15:49.782Z,64.19
2023-02-16T16:18:57.897Z,67.78
2023-02-16T16:22:06.646Z,68.03
2023-02-16T16:25:45.236Z,61.26
2023-02-16T16:28:55.025Z,55.68
2023-02-16T16:32:01.665Z,54.42
2023-02-16T16:35:23.596Z,57.15
2023-02-16T16:38:36.298Z,58.63
2023-02-16T16:41:43.210Z,57.26
2023-02-16T16:45:29.363Z,54.08
2023-02-16T16:48:39.534Z,54.92
2023-02-16T16:51:47.330Z,58.16
2023-02-16T16:54:54.147Z,67.17
2023-02-16T16:58:03.590Z,62.84
2023-02-16T17:01:16.147Z,64.69
2023-02-16T17:04:22.347Z,65.22
2023-02-16T17:07:29.349Z,61.98
2023-02-16T17:10:35.458Z,69.00
2023-02-16T17:13:42.622Z,70.82
2023-02-16T17:16:56.520Z,65.53
2023-02-16T17:20:03.398Z,61.72
2023-02-16T17:23:09.392Z,61.13
2023-02-16T17:26:16.476Z,66.17
2023-02-16T17:29:22.851Z,62.92
2023-02-16T17:32:32.387Z,66.78
2023-02-16T17:35:42.552Z,65.66
2023-02-16T17:38:49.265Z,65.16
2023-02-16T17:41:55.337Z,69.16
2023-02-16T17:45:02.292Z,68.75
2023-02-16T17:48:11.306Z,74.59
2023-02-16T17:51:20.658Z,76.39
2023-02-16T17:54:26.801Z,70.57
2023-02-16T17:57:33.508Z,69.90
2023-02-16T18:00:41.015Z,68.63
2023-02-16T18:03:50.933Z,69.64
2023-02-16T18:06:56.903Z,66.73
2023-02-16T18:10:03.783Z,62.20
2023-02-16T18:13:11.852Z,64.42
2023-02-16T18:16:22.065Z,78.05
2023-02-16T18:19:32.482Z,82.48
2023-02-16T18:22:39.318Z,77.46
2023-02-16T18:25:46.317Z,73.27
2023-02-16T18:28:53.274Z,73.28
2023-02-16T18:31:59.234Z,80.94
2023-02-16T18:35:09.436Z,86.92
2023-02-16T18:38:15.421Z,75.11
2023-02-16T18:41:22.151Z,73.69
2023-02-16T18:44:28.019Z,67.69
2023-02-16T18:47:34.716Z,69.33
2023-02-16T18:50:43.631Z,68.63
2023-02-16T18:53:50.508Z,64.22
2023-02-16T18:56:56.414Z,69.24
2023-02-16T19:00:03.492Z,77.91
2023-02-16T19:03:09.560Z,80.75
2023-02-16T19:06:19.055Z,80.02
2023-02-16T19:09:25.397Z,77.78
2023-02-16T19:12:32.298Z,76.28
2023-02-16T19:15:39.084Z,76.40
2023-02-16T19:18:45.949Z,78.42
2023-02-16T19:21:54.519Z,81.54
2023-02-16T19:25:01.660Z,80.84
2023-02-16T19:28:08.403Z,83.50
2023-02-16T19:31:23.002Z,85.02
2023-02-16T19:34:28.909Z,82.84
2023-02-16T19:37:38.323Z,82.58
2023-02-16T19:40:44.216Z,80.11
2023-02-16T19:43:51.723Z,76.21
2023-02-16T19:46:57.759Z,73.31
2023-02-16T19:50:04.643Z,75.99
2023-02-16T19:53:13.331Z,80.38
2023-02-16T19:56:24.111Z,80.96
2023-02-16T19:59:30.171Z,79.49
2023-02-16T20:02:37.041Z,73.13
2023-02-16T20:05:43.548Z,69.29
2023-02-16T20:08:55.518Z,67.71
2023-02-16T20:12:01.523Z,66.03
2023-02-16T20:15:10.092Z,69.80
2023-02-16T20:18:16.068Z,66.55
2023-02-16T20:21:25.601Z,66.04
2023-02-16T20:24:34.114Z,64.45
2023-02-16T20:27:41.029Z,64.31
2023-02-16T20:30:46.902Z,63.23
2023-02-16T20:33:53.971Z,63.55
2023-02-16T20:36:59.994Z,63.33
2023-02-16T20:40:11.673Z,65.40
2023-02-16T20:43:21.174Z,65.43
2023-02-16T20:46:28.149Z,65.57
2023-02-16T20:49:34.324Z,65.61
2023-02-16T20:52:41.160Z,64.19
2023-02-16T20:55:49.785Z,65.15
2023-02-16T20:58:59.830Z,66.52
2023-02-16T21:02:06.375Z,68.80
2023-02-16T21:05:14.705Z,71.70
2023-02-16T21:08:20.645Z,67.32
2023-02-16T21:11:30.545Z,66.27
2023-02-16T21:14:36.505Z,65.07
2023-02-16T21:17:43.377Z,65.23
2023-02-16T21:20:49.613Z,66.63
2023-02-16T21:23:58.362Z,66.29
2023-02-16T21:27:07.098Z,68.27
2023-02-16T21:30:15.746Z,70.24
2023-02-16T21:33:22.168Z,73.24
2023-02-16T21:36:30.126Z,73.19
2023-02-16T21:39:48.402Z,73.11
2023-02-16T21:42:57.640Z,71.37
2023-02-16T21:46:04.744Z,68.32
2023-02-16T21:49:17.391Z,67.74
2023-02-16T21:52:23.234Z,66.13
2023-02-16T21:55:42.730Z,67.63
2023-02-16T21:58:52.173Z,63.72
2023-02-16T22:02:01.743Z,62.07
2023-02-16T22:05:07.814Z,57.67
2023-02-16T22:08:14.845Z,57.80
2023-02-16T22:11:20.893Z,59.51
2023-02-16T22:14:33.416Z,59.47
2023-02-16T22:17:39.445Z,61.70
2023-02-16T22:20:46.244Z,63.91
2023-02-16T22:23:52.219Z,62.25
2023-02-16T22:26:58.943Z,62.43
2023-02-16T22:30:10.541Z,66.11
2023-02-16T22:33:17.286Z,68.39
2023-02-16T22:36:23.182Z,71.99
2023-02-16T22:39:31.484Z,67.07
2023-02-16T22:42:38.759Z,69.45
2023-02-16T22:45:48.142Z,64.51
2023-02-16T22:48:54.899Z,64.15
2023-02-16T22:52:01.763Z,63.73
2023-02-16T22:55:08.174Z,60.88
2023-02-16T22:58:14.941Z,58.88
2023-02-16T23:01:25.379Z,59.00
2023-02-16T23:04:32.159Z,57.99
2023-02-16T23:07:38.972Z,56.11
2023-02-16T23:11:00.170Z,54.05
2023-02-16T23:14:06.732Z,55.10
2023-02-16T23:17:16.058Z,54.97
2023-02-16T23:20:22.286Z,65.84
2023-02-16T23:23:28.989Z,63.94
2023-02-16T23:26:35.260Z,54.86
2023-02-16T23:29:42.153Z,53.00
2023-02-16T23:32:51.043Z,53.12
2023-02-16T23:35:57.902Z,55.69
2023-02-16T23:39:05.442Z,60.54
2023-02-16T23:42:12.188Z,58.52
2023-02-16T23:45:18.123Z,58.94
2023-02-16T23:48:27.732Z,59.77
2023-02-16T23:51:34.250Z,58.15
2023-02-16T23:54:40.940Z,56.84
2023-02-16T23:57:47.442Z,55.59
